MUHA/HAV METAR and TAF weather

Enter ICAO airport designator
Station Type Date Time Source
MUHA METAR 2019/12/09 12:55 UTC NOAA

MUHA 091255Z 06002KT 9000 FEW030 16/16 Q1019


Station Type Date Time Source
MUHA Decoded METAR 2019/12/09 12:55 UTC NOAA

Aeropuerto Jose Marti, Rancho-Boyeros, Habana, Cuba (MUHA) 22-59N 082-24W 75M
Dec 09, 2019 - 07:55 AM EST / 2019.12.09 1255 UTC
Wind: from the ENE (060 degrees) at 2 MPH (2 KT):0
Visibility: 5 mile(s):0
Sky conditions: mostly clear
Temperature: 60 F (16 C)
Dew Point: 60 F (16 C)
Relative Humidity: 100%
Pressure (altimeter): 30.09 in. Hg (1019 hPa)
ob: MUHA 091255Z 06002KT 9000 FEW030 16/16 Q1019
cycle: 13

Station Type Date Time Source
MUHA TAF 2019/12/09 12:03 UTC NOAA

TAF MUHA 091100Z 0912/1012 VRB03KT 9000 FEW030
BECMG 0914/0916 11008KT SCT030
BECMG 1002/1004 VRB03KT

Example: see airport list